sensor_id;sensor_type;location;lat;lon;timestamp;P1;durP1;ratioP1;P2;durP2;ratioP2
32295;SDS011;18781;51.550;5.418;2024-02-26T00:02:02;8.48;;;3.85;;
32295;SDS011;18781;51.550;5.418;2024-02-26T00:04:27;7.03;;;3.65;;
32295;SDS011;18781;51.550;5.418;2024-02-26T00:06:53;7.95;;;3.70;;
32295;SDS011;18781;51.550;5.418;2024-02-26T00:09:19;6.25;;;3.35;;
32295;SDS011;18781;51.550;5.418;2024-02-26T00:11:45;6.40;;;3.40;;
32295;SDS011;18781;51.550;5.418;2024-02-26T00:14:11;6.20;;;2.92;;
32295;SDS011;18781;51.550;5.418;2024-02-26T00:16:36;7.63;;;3.65;;
32295;SDS011;18781;51.550;5.418;2024-02-26T00:19:06;8.10;;;3.20;;
32295;SDS011;18781;51.550;5.418;2024-02-26T00:21:32;8.05;;;3.00;;
32295;SDS011;18781;51.550;5.418;2024-02-26T00:23:57;6.15;;;3.40;;
32295;SDS011;18781;51.550;5.418;2024-02-26T00:26:23;5.10;;;3.28;;
32295;SDS011;18781;51.550;5.418;2024-02-26T00:28:48;5.72;;;3.17;;
32295;SDS011;18781;51.550;5.418;2024-02-26T00:31:14;9.23;;;3.40;;
32295;SDS011;18781;51.550;5.418;2024-02-26T00:33:39;9.70;;;3.50;;
32295;SDS011;18781;51.550;5.418;2024-02-26T00:36:05;7.20;;;3.22;;
32295;SDS011;18781;51.550;5.418;2024-02-26T00:38:31;6.63;;;2.80;;
32295;SDS011;18781;51.550;5.418;2024-02-26T00:40:57;8.60;;;3.15;;
32295;SDS011;18781;51.550;5.418;2024-02-26T00:43:22;7.32;;;3.15;;
32295;SDS011;18781;51.550;5.418;2024-02-26T00:45:48;7.18;;;3.00;;
32295;SDS011;18781;51.550;5.418;2024-02-26T00:48:14;7.00;;;3.72;;
32295;SDS011;18781;51.550;5.418;2024-02-26T00:50:39;6.97;;;3.38;;
32295;SDS011;18781;51.550;5.418;2024-02-26T00:53:05;5.13;;;2.72;;
32295;SDS011;18781;51.550;5.418;2024-02-26T00:55:30;5.78;;;3.08;;
32295;SDS011;18781;51.550;5.418;2024-02-26T00:57:56;10.15;;;3.58;;
32295;SDS011;18781;51.550;5.418;2024-02-26T01:00:22;5.90;;;3.00;;
32295;SDS011;18781;51.550;5.418;2024-02-26T01:02:48;5.97;;;2.90;;
32295;SDS011;18781;51.550;5.418;2024-02-26T01:05:14;6.07;;;3.10;;
32295;SDS011;18781;51.550;5.418;2024-02-26T01:07:41;5.47;;;2.97;;
32295;SDS011;18781;51.550;5.418;2024-02-26T01:10:07;13.00;;;3.30;;
32295;SDS011;18781;51.550;5.418;2024-02-26T01:12:33;8.73;;;2.90;;
32295;SDS011;18781;51.550;5.418;2024-02-26T01:15:00;9.18;;;3.15;;
32295;SDS011;18781;51.550;5.418;2024-02-26T01:17:26;6.78;;;3.13;;
32295;SDS011;18781;51.550;5.418;2024-02-26T01:19:51;7.20;;;3.08;;
32295;SDS011;18781;51.550;5.418;2024-02-26T01:22:18;6.07;;;2.95;;
32295;SDS011;18781;51.550;5.418;2024-02-26T01:24:44;7.22;;;3.30;;
32295;SDS011;18781;51.550;5.418;2024-02-26T01:27:10;5.47;;;3.08;;
32295;SDS011;18781;51.550;5.418;2024-02-26T01:29:35;7.05;;;3.47;;
32295;SDS011;18781;51.550;5.418;2024-02-26T01:32:01;5.97;;;2.60;;
32295;SDS011;18781;51.550;5.418;2024-02-26T01:34:27;6.65;;;2.70;;
32295;SDS011;18781;51.550;5.418;2024-02-26T01:36:53;5.50;;;2.80;;
32295;SDS011;18781;51.550;5.418;2024-02-26T01:39:21;4.40;;;2.70;;
32295;SDS011;18781;51.550;5.418;2024-02-26T01:41:47;5.95;;;3.00;;
32295;SDS011;18781;51.550;5.418;2024-02-26T01:44:13;3.83;;;2.72;;
32295;SDS011;18781;51.550;5.418;2024-02-26T01:46:39;7.28;;;2.70;;
32295;SDS011;18781;51.550;5.418;2024-02-26T01:49:05;4.18;;;2.67;;
32295;SDS011;18781;51.550;5.418;2024-02-26T01:51:32;5.15;;;2.72;;
32295;SDS011;18781;51.550;5.418;2024-02-26T01:53:59;4.88;;;2.63;;
32295;SDS011;18781;51.550;5.418;2024-02-26T01:56:27;5.03;;;2.72;;
32295;SDS011;18781;51.550;5.418;2024-02-26T01:58:56;6.28;;;2.90;;
32295;SDS011;18781;51.550;5.418;2024-02-26T02:01:27;4.70;;;2.38;;
32295;SDS011;18781;51.550;5.418;2024-02-26T02:03:55;5.55;;;2.85;;
32295;SDS011;18781;51.550;5.418;2024-02-26T02:06:23;4.20;;;2.83;;
32295;SDS011;18781;51.550;5.418;2024-02-26T02:08:48;11.65;;;3.13;;
32295;SDS011;18781;51.550;5.418;2024-02-26T02:11:14;4.72;;;3.00;;
32295;SDS011;18781;51.550;5.418;2024-02-26T02:13:41;3.90;;;2.95;;
32295;SDS011;18781;51.550;5.418;2024-02-26T02:16:07;5.60;;;3.10;;
32295;SDS011;18781;51.550;5.418;2024-02-26T02:18:33;5.88;;;3.05;;
32295;SDS011;18781;51.550;5.418;2024-02-26T02:21:02;6.32;;;2.88;;
32295;SDS011;18781;51.550;5.418;2024-02-26T02:23:27;4.95;;;3.45;;
32295;SDS011;18781;51.550;5.418;2024-02-26T02:25:53;4.18;;;2.92;;
32295;SDS011;18781;51.550;5.418;2024-02-26T02:28:23;5.45;;;2.97;;
32295;SDS011;18781;51.550;5.418;2024-02-26T02:30:50;4.97;;;3.20;;
32295;SDS011;18781;51.550;5.418;2024-02-26T02:33:16;5.25;;;3.00;;
32295;SDS011;18781;51.550;5.418;2024-02-26T02:35:42;4.45;;;2.90;;
32295;SDS011;18781;51.550;5.418;2024-02-26T02:38:07;7.03;;;2.65;;
32295;SDS011;18781;51.550;5.418;2024-02-26T02:40:33;4.10;;;3.13;;
32295;SDS011;18781;51.550;5.418;2024-02-26T02:42:59;4.53;;;2.95;;
32295;SDS011;18781;51.550;5.418;2024-02-26T02:45:26;5.50;;;3.00;;
32295;SDS011;18781;51.550;5.418;2024-02-26T02:47:53;4.63;;;2.70;;
32295;SDS011;18781;51.550;5.418;2024-02-26T02:50:18;5.97;;;3.25;;
32295;SDS011;18781;51.550;5.418;2024-02-26T02:52:44;4.68;;;2.90;;
32295;SDS011;18781;51.550;5.418;2024-02-26T02:55:09;3.97;;;2.88;;
32295;SDS011;18781;51.550;5.418;2024-02-26T02:57:36;5.68;;;2.83;;
32295;SDS011;18781;51.550;5.418;2024-02-26T03:00:06;8.27;;;3.20;;
32295;SDS011;18781;51.550;5.418;2024-02-26T03:02:33;4.38;;;3.00;;
32295;SDS011;18781;51.550;5.418;2024-02-26T03:05:00;4.93;;;3.15;;
32295;SDS011;18781;51.550;5.418;2024-02-26T03:07:27;5.13;;;3.13;;
32295;SDS011;18781;51.550;5.418;2024-02-26T03:09:53;6.72;;;3.15;;
32295;SDS011;18781;51.550;5.418;2024-02-26T03:12:18;3.45;;;2.67;;
32295;SDS011;18781;51.550;5.418;2024-02-26T03:14:44;8.07;;;3.30;;
32295;SDS011;18781;51.550;5.418;2024-02-26T03:17:10;5.00;;;3.00;;
32295;SDS011;18781;51.550;5.418;2024-02-26T03:19:35;5.07;;;3.45;;
32295;SDS011;18781;51.550;5.418;2024-02-26T03:22:01;5.22;;;2.78;;
32295;SDS011;18781;51.550;5.418;2024-02-26T03:24:27;6.28;;;3.22;;
32295;SDS011;18781;51.550;5.418;2024-02-26T03:26:53;3.53;;;2.85;;
32295;SDS011;18781;51.550;5.418;2024-02-26T03:29:18;5.60;;;3.00;;
32295;SDS011;18781;51.550;5.418;2024-02-26T03:31:44;5.32;;;3.20;;
32295;SDS011;18781;51.550;5.418;2024-02-26T03:34:10;6.38;;;2.83;;
32295;SDS011;18781;51.550;5.418;2024-02-26T03:36:37;12.27;;;2.88;;
32295;SDS011;18781;51.550;5.418;2024-02-26T03:39:03;4.28;;;2.90;;
32295;SDS011;18781;51.550;5.418;2024-02-26T03:43:58;6.82;;;2.60;;
32295;SDS011;18781;51.550;5.418;2024-02-26T03:46:24;4.15;;;3.00;;
32295;SDS011;18781;51.550;5.418;2024-02-26T03:48:50;5.13;;;2.80;;
32295;SDS011;18781;51.550;5.418;2024-02-26T03:51:15;4.78;;;2.80;;
32295;SDS011;18781;51.550;5.418;2024-02-26T03:53:41;5.03;;;3.15;;
32295;SDS011;18781;51.550;5.418;2024-02-26T03:56:06;4.38;;;2.67;;
32295;SDS011;18781;51.550;5.418;2024-02-26T03:58:32;5.50;;;3.15;;
32295;SDS011;18781;51.550;5.418;2024-02-26T04:01:01;4.20;;;3.28;;
32295;SDS011;18781;51.550;5.418;2024-02-26T04:03:27;4.95;;;3.28;;
32295;SDS011;18781;51.550;5.418;2024-02-26T04:05:52;6.55;;;3.20;;
32295;SDS011;18781;51.550;5.418;2024-02-26T04:08:18;7.28;;;3.03;;
32295;SDS011;18781;51.550;5.418;2024-02-26T04:10:44;4.53;;;3.08;;
32295;SDS011;18781;51.550;5.418;2024-02-26T04:13:09;4.78;;;2.65;;
32295;SDS011;18781;51.550;5.418;2024-02-26T04:15:35;5.70;;;3.10;;
32295;SDS011;18781;51.550;5.418;2024-02-26T04:18:00;6.05;;;3.22;;
32295;SDS011;18781;51.550;5.418;2024-02-26T04:20:27;5.47;;;2.60;;
32295;SDS011;18781;51.550;5.418;2024-02-26T04:22:53;7.38;;;2.95;;
32295;SDS011;18781;51.550;5.418;2024-02-26T04:25:18;4.50;;;3.00;;
32295;SDS011;18781;51.550;5.418;2024-02-26T04:27:44;6.90;;;3.60;;
32295;SDS011;18781;51.550;5.418;2024-02-26T04:30:10;7.15;;;3.78;;
32295;SDS011;18781;51.550;5.418;2024-02-26T04:32:35;6.25;;;3.33;;
32295;SDS011;18781;51.550;5.418;2024-02-26T04:35:04;6.30;;;3.78;;
32295;SDS011;18781;51.550;5.418;2024-02-26T04:37:30;4.55;;;3.67;;
32295;SDS011;18781;51.550;5.418;2024-02-26T04:39:59;7.20;;;3.80;;
32295;SDS011;18781;51.550;5.418;2024-02-26T04:42:26;5.03;;;3.55;;
32295;SDS011;18781;51.550;5.418;2024-02-26T04:44:52;8.30;;;4.25;;
32295;SDS011;18781;51.550;5.418;2024-02-26T04:47:19;5.55;;;3.65;;
32295;SDS011;18781;51.550;5.418;2024-02-26T04:49:47;6.35;;;3.75;;
32295;SDS011;18781;51.550;5.418;2024-02-26T04:52:14;4.63;;;3.63;;
32295;SDS011;18781;51.550;5.418;2024-02-26T04:54:39;5.03;;;3.80;;
32295;SDS011;18781;51.550;5.418;2024-02-26T04:57:05;5.25;;;3.60;;
32295;SDS011;18781;51.550;5.418;2024-02-26T04:59:30;6.93;;;4.03;;
32295;SDS011;18781;51.550;5.418;2024-02-26T05:01:56;6.85;;;3.70;;
32295;SDS011;18781;51.550;5.418;2024-02-26T05:04:22;4.05;;;3.25;;
32295;SDS011;18781;51.550;5.418;2024-02-26T05:06:47;11.20;;;3.55;;
32295;SDS011;18781;51.550;5.418;2024-02-26T05:09:13;4.60;;;2.92;;
32295;SDS011;18781;51.550;5.418;2024-02-26T05:11:38;6.10;;;3.45;;
32295;SDS011;18781;51.550;5.418;2024-02-26T05:14:04;5.72;;;3.65;;
32295;SDS011;18781;51.550;5.418;2024-02-26T05:16:29;4.20;;;3.30;;
32295;SDS011;18781;51.550;5.418;2024-02-26T05:18:56;5.50;;;3.28;;
32295;SDS011;18781;51.550;5.418;2024-02-26T05:21:22;5.53;;;3.58;;
32295;SDS011;18781;51.550;5.418;2024-02-26T05:23:48;4.55;;;3.17;;
32295;SDS011;18781;51.550;5.418;2024-02-26T05:26:23;6.75;;;3.50;;
32295;SDS011;18781;51.550;5.418;2024-02-26T05:28:48;5.85;;;3.05;;
32295;SDS011;18781;51.550;5.418;2024-02-26T05:31:15;4.22;;;2.97;;
32295;SDS011;18781;51.550;5.418;2024-02-26T05:33:41;7.55;;;3.05;;
32295;SDS011;18781;51.550;5.418;2024-02-26T05:36:07;5.30;;;3.15;;
32295;SDS011;18781;51.550;5.418;2024-02-26T05:38:32;3.83;;;3.00;;
32295;SDS011;18781;51.550;5.418;2024-02-26T05:40:58;4.57;;;2.85;;
32295;SDS011;18781;51.550;5.418;2024-02-26T05:43:24;4.88;;;3.20;;
32295;SDS011;18781;51.550;5.418;2024-02-26T05:45:51;3.50;;;3.10;;
32295;SDS011;18781;51.550;5.418;2024-02-26T05:48:17;4.10;;;3.10;;
32295;SDS011;18781;51.550;5.418;2024-02-26T05:50:44;7.00;;;2.90;;
32295;SDS011;18781;51.550;5.418;2024-02-26T05:53:10;5.97;;;3.38;;
32295;SDS011;18781;51.550;5.418;2024-02-26T05:55:35;8.77;;;3.35;;
32295;SDS011;18781;51.550;5.418;2024-02-26T05:58:01;4.68;;;3.08;;
32295;SDS011;18781;51.550;5.418;2024-02-26T06:00:26;4.70;;;3.30;;
32295;SDS011;18781;51.550;5.418;2024-02-26T06:02:52;6.13;;;3.58;;
32295;SDS011;18781;51.550;5.418;2024-02-26T06:05:18;5.13;;;3.38;;
32295;SDS011;18781;51.550;5.418;2024-02-26T06:07:43;3.95;;;2.90;;
32295;SDS011;18781;51.550;5.418;2024-02-26T06:10:09;4.88;;;2.83;;
32295;SDS011;18781;51.550;5.418;2024-02-26T06:12:35;5.30;;;3.17;;
32295;SDS011;18781;51.550;5.418;2024-02-26T06:15:01;8.73;;;3.50;;
32295;SDS011;18781;51.550;5.418;2024-02-26T06:17:27;4.80;;;3.45;;
32295;SDS011;18781;51.550;5.418;2024-02-26T06:19:53;7.20;;;3.58;;
32295;SDS011;18781;51.550;5.418;2024-02-26T06:22:19;7.00;;;3.53;;
32295;SDS011;18781;51.550;5.418;2024-02-26T06:24:44;4.75;;;3.30;;
32295;SDS011;18781;51.550;5.418;2024-02-26T06:27:10;6.75;;;4.50;;
32295;SDS011;18781;51.550;5.418;2024-02-26T06:29:36;8.13;;;4.10;;
32295;SDS011;18781;51.550;5.418;2024-02-26T06:32:01;6.45;;;4.47;;
32295;SDS011;18781;51.550;5.418;2024-02-26T06:34:27;6.45;;;4.30;;
32295;SDS011;18781;51.550;5.418;2024-02-26T06:36:52;6.78;;;4.65;;
32295;SDS011;18781;51.550;5.418;2024-02-26T06:39:18;5.88;;;4.60;;
32295;SDS011;18781;51.550;5.418;2024-02-26T06:41:44;7.60;;;4.80;;
32295;SDS011;18781;51.550;5.418;2024-02-26T06:44:11;7.30;;;5.35;;
32295;SDS011;18781;51.550;5.418;2024-02-26T06:46:38;7.30;;;5.32;;
32295;SDS011;18781;51.550;5.418;2024-02-26T06:49:04;9.18;;;4.88;;
32295;SDS011;18781;51.550;5.418;2024-02-26T06:51:30;7.53;;;5.53;;
32295;SDS011;18781;51.550;5.418;2024-02-26T06:53:55;9.48;;;5.20;;
32295;SDS011;18781;51.550;5.418;2024-02-26T06:56:21;7.50;;;4.82;;
32295;SDS011;18781;51.550;5.418;2024-02-26T06:58:47;10.38;;;6.10;;
32295;SDS011;18781;51.550;5.418;2024-02-26T07:01:12;20.13;;;12.77;;
32295;SDS011;18781;51.550;5.418;2024-02-26T07:03:40;9.18;;;5.65;;
32295;SDS011;18781;51.550;5.418;2024-02-26T07:06:06;8.40;;;6.03;;
32295;SDS011;18781;51.550;5.418;2024-02-26T07:08:31;8.35;;;5.80;;
32295;SDS011;18781;51.550;5.418;2024-02-26T07:10:57;8.48;;;5.45;;
32295;SDS011;18781;51.550;5.418;2024-02-26T07:13:23;6.78;;;5.03;;
32295;SDS011;18781;51.550;5.418;2024-02-26T07:15:49;7.60;;;4.72;;
32295;SDS011;18781;51.550;5.418;2024-02-26T07:18:14;7.68;;;4.85;;
32295;SDS011;18781;51.550;5.418;2024-02-26T07:20:40;7.05;;;5.10;;
32295;SDS011;18781;51.550;5.418;2024-02-26T07:23:05;6.55;;;4.35;;
32295;SDS011;18781;51.550;5.418;2024-02-26T07:25:31;11.88;;;5.15;;
32295;SDS011;18781;51.550;5.418;2024-02-26T07:27:57;6.82;;;4.72;;
32295;SDS011;18781;51.550;5.418;2024-02-26T07:30:23;7.20;;;4.30;;
32295;SDS011;18781;51.550;5.418;2024-02-26T07:32:49;9.63;;;5.25;;
32295;SDS011;18781;51.550;5.418;2024-02-26T07:35:15;8.18;;;4.63;;
32295;SDS011;18781;51.550;5.418;2024-02-26T07:37:42;7.05;;;4.72;;
32295;SDS011;18781;51.550;5.418;2024-02-26T07:40:08;6.68;;;4.03;;
32295;SDS011;18781;51.550;5.418;2024-02-26T07:42:34;6.85;;;4.20;;
32295;SDS011;18781;51.550;5.418;2024-02-26T07:45:00;11.02;;;4.45;;
32295;SDS011;18781;51.550;5.418;2024-02-26T07:47:27;6.45;;;4.30;;
32295;SDS011;18781;51.550;5.418;2024-02-26T07:49:52;7.03;;;4.50;;
32295;SDS011;18781;51.550;5.418;2024-02-26T07:52:18;9.15;;;4.57;;
32295;SDS011;18781;51.550;5.418;2024-02-26T07:54:43;8.35;;;4.60;;
32295;SDS011;18781;51.550;5.418;2024-02-26T07:57:09;9.10;;;4.40;;
32295;SDS011;18781;51.550;5.418;2024-02-26T07:59:35;6.50;;;4.50;;
32295;SDS011;18781;51.550;5.418;2024-02-26T08:02:00;6.40;;;3.95;;
32295;SDS011;18781;51.550;5.418;2024-02-26T08:04:28;6.50;;;4.38;;
32295;SDS011;18781;51.550;5.418;2024-02-26T08:06:54;5.43;;;4.00;;
32295;SDS011;18781;51.550;5.418;2024-02-26T08:09:19;9.75;;;4.18;;
32295;SDS011;18781;51.550;5.418;2024-02-26T08:11:45;6.93;;;4.50;;
32295;SDS011;18781;51.550;5.418;2024-02-26T08:14:10;5.65;;;4.38;;
32295;SDS011;18781;51.550;5.418;2024-02-26T08:16:36;5.63;;;4.45;;
32295;SDS011;18781;51.550;5.418;2024-02-26T08:19:02;6.53;;;4.35;;
32295;SDS011;18781;51.550;5.418;2024-02-26T08:21:28;6.25;;;4.30;;
32295;SDS011;18781;51.550;5.418;2024-02-26T08:23:53;7.72;;;4.45;;
32295;SDS011;18781;51.550;5.418;2024-02-26T08:26:19;10.45;;;5.15;;
32295;SDS011;18781;51.550;5.418;2024-02-26T08:28:47;7.60;;;4.63;;
32295;SDS011;18781;51.550;5.418;2024-02-26T08:31:14;6.47;;;4.82;;
32295;SDS011;18781;51.550;5.418;2024-02-26T08:33:39;9.32;;;5.30;;
32295;SDS011;18781;51.550;5.418;2024-02-26T08:36:05;7.63;;;4.82;;
32295;SDS011;18781;51.550;5.418;2024-02-26T08:38:31;7.65;;;4.97;;
32295;SDS011;18781;51.550;5.418;2024-02-26T08:40:57;9.63;;;5.32;;
32295;SDS011;18781;51.550;5.418;2024-02-26T08:43:22;10.55;;;5.20;;
32295;SDS011;18781;51.550;5.418;2024-02-26T08:45:48;9.25;;;4.75;;
32295;SDS011;18781;51.550;5.418;2024-02-26T08:48:13;11.30;;;5.13;;
32295;SDS011;18781;51.550;5.418;2024-02-26T08:50:40;7.50;;;5.60;;
32295;SDS011;18781;51.550;5.418;2024-02-26T08:53:06;8.43;;;5.35;;
32295;SDS011;18781;51.550;5.418;2024-02-26T08:55:32;8.20;;;5.32;;
32295;SDS011;18781;51.550;5.418;2024-02-26T08:57:58;6.43;;;5.03;;
32295;SDS011;18781;51.550;5.418;2024-02-26T09:00:23;7.68;;;5.20;;
32295;SDS011;18781;51.550;5.418;2024-02-26T09:02:49;7.78;;;5.15;;
32295;SDS011;18781;51.550;5.418;2024-02-26T09:05:16;8.35;;;5.32;;
32295;SDS011;18781;51.550;5.418;2024-02-26T09:07:41;10.68;;;5.93;;
32295;SDS011;18781;51.550;5.418;2024-02-26T09:10:07;9.43;;;6.10;;
32295;SDS011;18781;51.550;5.418;2024-02-26T09:12:36;12.10;;;6.57;;
32295;SDS011;18781;51.550;5.418;2024-02-26T09:15:03;10.23;;;6.13;;
32295;SDS011;18781;51.550;5.418;2024-02-26T09:17:29;8.38;;;5.60;;
32295;SDS011;18781;51.550;5.418;2024-02-26T09:19:54;8.38;;;5.65;;
32295;SDS011;18781;51.550;5.418;2024-02-26T09:22:20;6.82;;;5.43;;
32295;SDS011;18781;51.550;5.418;2024-02-26T09:24:45;7.68;;;5.70;;
32295;SDS011;18781;51.550;5.418;2024-02-26T09:27:11;9.10;;;6.15;;
32295;SDS011;18781;51.550;5.418;2024-02-26T09:29:37;9.30;;;5.88;;
32295;SDS011;18781;51.550;5.418;2024-02-26T09:32:02;7.90;;;6.35;;
32295;SDS011;18781;51.550;5.418;2024-02-26T09:34:28;7.88;;;5.82;;
32295;SDS011;18781;51.550;5.418;2024-02-26T09:36:54;9.00;;;6.25;;
32295;SDS011;18781;51.550;5.418;2024-02-26T09:39:20;9.40;;;6.38;;
32295;SDS011;18781;51.550;5.418;2024-02-26T09:41:47;10.55;;;6.72;;
32295;SDS011;18781;51.550;5.418;2024-02-26T09:44:18;10.88;;;7.00;;
32295;SDS011;18781;51.550;5.418;2024-02-26T09:46:46;9.05;;;6.93;;
32295;SDS011;18781;51.550;5.418;2024-02-26T09:49:15;13.68;;;7.20;;
32295;SDS011;18781;51.550;5.418;2024-02-26T09:51:41;10.90;;;8.15;;
32295;SDS011;18781;51.550;5.418;2024-02-26T09:54:07;12.82;;;8.23;;
32295;SDS011;18781;51.550;5.418;2024-02-26T09:56:35;14.77;;;8.15;;
32295;SDS011;18781;51.550;5.418;2024-02-26T09:59:03;13.38;;;8.13;;
32295;SDS011;18781;51.550;5.418;2024-02-26T10:01:35;10.30;;;7.65;;
32295;SDS011;18781;51.550;5.418;2024-02-26T10:04:03;11.35;;;8.00;;
32295;SDS011;18781;51.550;5.418;2024-02-26T10:06:29;11.52;;;8.27;;
32295;SDS011;18781;51.550;5.418;2024-02-26T10:08:55;10.95;;;7.93;;
32295;SDS011;18781;51.550;5.418;2024-02-26T10:11:23;13.70;;;8.40;;
32295;SDS011;18781;51.550;5.418;2024-02-26T10:13:49;11.13;;;8.13;;
32295;SDS011;18781;51.550;5.418;2024-02-26T10:16:15;12.77;;;8.95;;
32295;SDS011;18781;51.550;5.418;2024-02-26T10:18:48;11.55;;;8.52;;
32295;SDS011;18781;51.550;5.418;2024-02-26T10:21:21;12.90;;;8.50;;
32295;SDS011;18781;51.550;5.418;2024-02-26T10:23:47;14.23;;;9.55;;
32295;SDS011;18781;51.550;5.418;2024-02-26T10:26:16;14.98;;;9.02;;
32295;SDS011;18781;51.550;5.418;2024-02-26T10:28:55;13.15;;;9.60;;
32295;SDS011;18781;51.550;5.418;2024-02-26T10:31:26;14.15;;;9.40;;
32295;SDS011;18781;51.550;5.418;2024-02-26T10:33:51;17.73;;;10.18;;
32295;SDS011;18781;51.550;5.418;2024-02-26T10:36:20;17.45;;;10.88;;
32295;SDS011;18781;51.550;5.418;2024-02-26T10:38:46;14.02;;;10.45;;
32295;SDS011;18781;51.550;5.418;2024-02-26T10:41:13;17.85;;;10.45;;
32295;SDS011;18781;51.550;5.418;2024-02-26T10:43:42;16.10;;;11.25;;
32295;SDS011;18781;51.550;5.418;2024-02-26T10:46:09;19.00;;;10.85;;
32295;SDS011;18781;51.550;5.418;2024-02-26T10:48:35;17.80;;;11.50;;
32295;SDS011;18781;51.550;5.418;2024-02-26T10:51:00;18.90;;;12.15;;
32295;SDS011;18781;51.550;5.418;2024-02-26T10:53:28;16.38;;;11.13;;
32295;SDS011;18781;51.550;5.418;2024-02-26T10:55:57;17.35;;;11.55;;
32295;SDS011;18781;51.550;5.418;2024-02-26T10:58:25;19.63;;;11.60;;
32295;SDS011;18781;51.550;5.418;2024-02-26T11:00:53;17.75;;;11.48;;
32295;SDS011;18781;51.550;5.418;2024-02-26T11:03:22;20.13;;;11.90;;
32295;SDS011;18781;51.550;5.418;2024-02-26T11:05:49;20.08;;;12.00;;
32295;SDS011;18781;51.550;5.418;2024-02-26T11:08:18;19.00;;;11.25;;
32295;SDS011;18781;51.550;5.418;2024-02-26T11:10:47;16.88;;;11.48;;
32295;SDS011;18781;51.550;5.418;2024-02-26T11:13:14;18.80;;;12.07;;
32295;SDS011;18781;51.550;5.418;2024-02-26T11:15:43;21.05;;;12.07;;
32295;SDS011;18781;51.550;5.418;2024-02-26T11:18:12;24.42;;;13.68;;
32295;SDS011;18781;51.550;5.418;2024-02-26T11:20:40;21.10;;;12.70;;
32295;SDS011;18781;51.550;5.418;2024-02-26T11:23:06;20.90;;;12.68;;
32295;SDS011;18781;51.550;5.418;2024-02-26T11:25:33;23.92;;;13.20;;
32295;SDS011;18781;51.550;5.418;2024-02-26T11:28:01;24.20;;;13.48;;
32295;SDS011;18781;51.550;5.418;2024-02-26T11:30:31;21.77;;;13.02;;
32295;SDS011;18781;51.550;5.418;2024-02-26T11:33:03;21.00;;;12.55;;
32295;SDS011;18781;51.550;5.418;2024-02-26T11:35:31;24.38;;;13.07;;
32295;SDS011;18781;51.550;5.418;2024-02-26T11:37:57;21.98;;;13.50;;
32295;SDS011;18781;51.550;5.418;2024-02-26T11:40:26;25.25;;;14.55;;
32295;SDS011;18781;51.550;5.418;2024-02-26T11:42:52;26.05;;;15.13;;
32295;SDS011;18781;51.550;5.418;2024-02-26T11:48:16;25.25;;;14.93;;
32295;SDS011;18781;51.550;5.418;2024-02-26T11:50:52;25.77;;;14.95;;
32295;SDS011;18781;51.550;5.418;2024-02-26T11:53:19;27.38;;;14.98;;
32295;SDS011;18781;51.550;5.418;2024-02-26T11:55:46;27.38;;;14.95;;
32295;SDS011;18781;51.550;5.418;2024-02-26T11:58:13;25.65;;;14.15;;
32295;SDS011;18781;51.550;5.418;2024-02-26T12:00:42;25.48;;;14.43;;
32295;SDS011;18781;51.550;5.418;2024-02-26T12:03:08;23.95;;;14.15;;
32295;SDS011;18781;51.550;5.418;2024-02-26T12:05:36;25.90;;;15.32;;
32295;SDS011;18781;51.550;5.418;2024-02-26T12:08:03;22.73;;;14.75;;
32295;SDS011;18781;51.550;5.418;2024-02-26T12:10:32;24.42;;;14.23;;
32295;SDS011;18781;51.550;5.418;2024-02-26T12:13:07;21.15;;;13.57;;
32295;SDS011;18781;51.550;5.418;2024-02-26T12:15:37;24.38;;;14.30;;
32295;SDS011;18781;51.550;5.418;2024-02-26T12:18:04;25.70;;;15.02;;
32295;SDS011;18781;51.550;5.418;2024-02-26T12:20:35;24.02;;;14.48;;
32295;SDS011;18781;51.550;5.418;2024-02-26T12:23:02;24.45;;;14.25;;
32295;SDS011;18781;51.550;5.418;2024-02-26T12:27:57;24.90;;;14.80;;
32295;SDS011;18781;51.550;5.418;2024-02-26T12:30:24;24.48;;;14.90;;
32295;SDS011;18781;51.550;5.418;2024-02-26T12:32:54;25.92;;;14.18;;
32295;SDS011;18781;51.550;5.418;2024-02-26T12:35:22;22.80;;;14.40;;
32295;SDS011;18781;51.550;5.418;2024-02-26T12:37:49;25.13;;;15.30;;
32295;SDS011;18781;51.550;5.418;2024-02-26T12:40:16;28.50;;;15.70;;
32295;SDS011;18781;51.550;5.418;2024-02-26T12:42:42;26.38;;;14.77;;
32295;SDS011;18781;51.550;5.418;2024-02-26T12:45:09;24.65;;;15.27;;
32295;SDS011;18781;51.550;5.418;2024-02-26T12:47:39;23.98;;;14.75;;
32295;SDS011;18781;51.550;5.418;2024-02-26T12:52:35;25.27;;;14.65;;
32295;SDS011;18781;51.550;5.418;2024-02-26T12:55:03;24.98;;;14.55;;
32295;SDS011;18781;51.550;5.418;2024-02-26T12:57:30;23.13;;;14.30;;
32295;SDS011;18781;51.550;5.418;2024-02-26T12:59:58;24.10;;;14.27;;
32295;SDS011;18781;51.550;5.418;2024-02-26T13:02:25;22.42;;;13.25;;
32295;SDS011;18781;51.550;5.418;2024-02-26T13:04:52;22.45;;;13.30;;
32295;SDS011;18781;51.550;5.418;2024-02-26T13:07:18;23.67;;;13.23;;
32295;SDS011;18781;51.550;5.418;2024-02-26T13:09:45;20.50;;;13.00;;
32295;SDS011;18781;51.550;5.418;2024-02-26T13:12:11;21.70;;;13.20;;
32295;SDS011;18781;51.550;5.418;2024-02-26T13:14:38;21.42;;;12.50;;
32295;SDS011;18781;51.550;5.418;2024-02-26T13:17:04;18.10;;;11.70;;
32295;SDS011;18781;51.550;5.418;2024-02-26T13:19:29;20.63;;;12.32;;
32295;SDS011;18781;51.550;5.418;2024-02-26T13:21:55;20.83;;;11.88;;
32295;SDS011;18781;51.550;5.418;2024-02-26T13:24:21;21.55;;;13.23;;
32295;SDS011;18781;51.550;5.418;2024-02-26T13:26:53;21.52;;;11.90;;
32295;SDS011;18781;51.550;5.418;2024-02-26T13:29:19;19.20;;;11.65;;
32295;SDS011;18781;51.550;5.418;2024-02-26T13:31:45;23.10;;;11.30;;
32295;SDS011;18781;51.550;5.418;2024-02-26T13:34:11;18.65;;;10.77;;
32295;SDS011;18781;51.550;5.418;2024-02-26T13:36:49;19.10;;;10.70;;
32295;SDS011;18781;51.550;5.418;2024-02-26T13:39:21;18.25;;;10.70;;
32295;SDS011;18781;51.550;5.418;2024-02-26T13:41:50;18.92;;;10.75;;
32295;SDS011;18781;51.550;5.418;2024-02-26T13:44:17;15.43;;;9.65;;
32295;SDS011;18781;51.550;5.418;2024-02-26T13:46:44;16.60;;;10.38;;
32295;SDS011;18781;51.550;5.418;2024-02-26T13:49:09;17.25;;;9.70;;
32295;SDS011;18781;51.550;5.418;2024-02-26T13:51:36;17.92;;;9.93;;
32295;SDS011;18781;51.550;5.418;2024-02-26T13:54:02;18.52;;;9.95;;
32295;SDS011;18781;51.550;5.418;2024-02-26T13:56:28;15.77;;;9.82;;
32295;SDS011;18781;51.550;5.418;2024-02-26T13:58:55;16.73;;;9.25;;
32295;SDS011;18781;51.550;5.418;2024-02-26T14:01:20;15.10;;;8.95;;
32295;SDS011;18781;51.550;5.418;2024-02-26T14:03:46;15.00;;;9.15;;
32295;SDS011;18781;51.550;5.418;2024-02-26T14:06:12;14.30;;;9.00;;
32295;SDS011;18781;51.550;5.418;2024-02-26T14:08:37;17.30;;;9.10;;
32295;SDS011;18781;51.550;5.418;2024-02-26T14:11:03;16.55;;;9.27;;
32295;SDS011;18781;51.550;5.418;2024-02-26T14:13:29;14.75;;;9.02;;
32295;SDS011;18781;51.550;5.418;2024-02-26T14:15:54;12.38;;;8.35;;
32295;SDS011;18781;51.550;5.418;2024-02-26T14:18:21;14.00;;;8.55;;
32295;SDS011;18781;51.550;5.418;2024-02-26T14:20:46;14.93;;;8.52;;
32295;SDS011;18781;51.550;5.418;2024-02-26T14:23:12;14.07;;;8.50;;
32295;SDS011;18781;51.550;5.418;2024-02-26T14:25:39;12.70;;;8.02;;
32295;SDS011;18781;51.550;5.418;2024-02-26T14:28:05;14.77;;;8.40;;
32295;SDS011;18781;51.550;5.418;2024-02-26T14:30:31;15.82;;;8.93;;
32295;SDS011;18781;51.550;5.418;2024-02-26T14:32:57;14.63;;;9.70;;
32295;SDS011;18781;51.550;5.418;2024-02-26T14:35:23;15.80;;;9.15;;
32295;SDS011;18781;51.550;5.418;2024-02-26T14:37:50;16.58;;;9.75;;
32295;SDS011;18781;51.550;5.418;2024-02-26T14:40:16;15.45;;;9.32;;
32295;SDS011;18781;51.550;5.418;2024-02-26T14:42:42;15.88;;;9.82;;
32295;SDS011;18781;51.550;5.418;2024-02-26T14:45:08;13.18;;;8.90;;
32295;SDS011;18781;51.550;5.418;2024-02-26T14:47:34;16.85;;;10.68;;